Time;durP1;ratioP1;P1;durP2;ratioP2;P2;SDS_P1;SDS_P2;PMS_P1;PMS_P2;Temp;Humidity;BMP_temperature;BMP_pressure;BME280_temperature;BME280_humidity;BME280_pressure;Samples;Min_cycle;Max_cycle;Signal;HPM_P1;HPM_P2
2021/10/24 00:01:50;;;;;;;0.00;0.00;;;;;;;;;;4978089;28;20090;-82
2021/10/24 00:04:15;;;;;;;0.10;0.10;;;;;;;;;;4995692;28;20109;-83
2021/10/24 00:06:41;;;;;;;0.80;0.80;;;;;;;;;;4995217;28;20030;-82
2021/10/24 00:09:07;;;;;;;0.85;0.85;;;;;;;;;;4995495;28;20050;-82
2021/10/24 00:11:33;;;;;;;0.00;0.00;;;;;;;;;;4995726;28;20149;-83
2021/10/24 00:13:58;;;;;;;0.08;0.08;;;;;;;;;;4995525;28;20124;-82
2021/10/24 00:16:25;;;;;;;0.10;0.10;;;;;;;;;;4989706;28;20467;-83
2021/10/24 00:18:51;;;;;;;0.57;0.57;;;;;;;;;;4975846;28;20490;-83
2021/10/24 00:21:16;;;;;;;0.15;0.15;;;;;;;;;;4975642;28;20042;-83
2021/10/24 00:23:43;;;;;;;0.13;0.13;;;;;;;;;;4975540;28;20022;-83
2021/10/24 00:26:08;;;;;;;0.10;0.10;;;;;;;;;;4958547;28;20376;-83
2021/10/24 00:28:33;;;;;;;0.52;0.52;;;;;;;;;;4975861;28;20113;-83
2021/10/24 00:30:59;;;;;;;0.10;0.10;;;;;;;;;;4975775;28;20018;-82
2021/10/24 00:33:24;;;;;;;2.75;1.10;;;;;;;;;;4975810;28;20356;-83
2021/10/24 00:35:49;;;;;;;0.75;0.32;;;;;;;;;;4975585;28;20046;-83
2021/10/24 00:38:14;;;;;;;0.35;0.35;;;;;;;;;;4975686;28;20035;-83
2021/10/24 00:40:40;;;;;;;0.10;0.10;;;;;;;;;;4975532;28;20019;-83
2021/10/24 00:43:05;;;;;;;0.00;0.00;;;;;;;;;;4975396;28;20085;-82
2021/10/24 00:45:30;;;;;;;0.00;0.00;;;;;;;;;;4976014;28;20023;-82
2021/10/24 00:47:56;;;;;;;0.10;0.10;;;;;;;;;;4975467;28;20019;-83
2021/10/24 00:50:22;;;;;;;2.10;1.55;;;;;;;;;;4991309;28;20046;-82
2021/10/24 00:52:48;;;;;;;0.38;0.38;;;;;;;;;;4994800;28;20101;-83
2021/10/24 00:55:13;;;;;;;0.32;0.25;;;;;;;;;;4994799;28;20046;-83
2021/10/24 00:57:39;;;;;;;0.43;0.43;;;;;;;;;;4994684;28;20121;-83
2021/10/24 01:00:06;;;;;;;0.00;0.00;;;;;;;;;;4977129;28;20026;-83
2021/10/24 01:02:31;;;;;;;0.00;0.00;;;;;;;;;;4994855;28;20030;-83
2021/10/24 01:04:56;;;;;;;0.52;0.40;;;;;;;;;;4994359;28;20042;-83
2021/10/24 01:07:21;;;;;;;7.03;0.73;;;;;;;;;;4993864;28;20018;-83
2021/10/24 01:09:47;;;;;;;0.00;0.00;;;;;;;;;;4994198;28;20149;-82
2021/10/24 01:12:14;;;;;;;0.00;0.00;;;;;;;;;;4994463;28;20041;-83
2021/10/24 01:14:39;;;;;;;0.10;0.10;;;;;;;;;;4994469;28;20018;-82
2021/10/24 01:17:05;;;;;;;1.55;1.20;;;;;;;;;;4983200;28;20041;-83
2021/10/24 01:19:30;;;;;;;0.10;0.10;;;;;;;;;;4974948;28;20026;-83
2021/10/24 01:21:55;;;;;;;0.00;0.00;;;;;;;;;;4975022;28;20023;-82
2021/10/24 01:24:20;;;;;;;0.08;0.08;;;;;;;;;;4974654;28;20026;-83
2021/10/24 01:26:46;;;;;;;8.02;0.90;;;;;;;;;;4979848;28;20030;-82
2021/10/24 01:29:11;;;;;;;0.00;0.00;;;;;;;;;;4994564;28;20065;-82
2021/10/24 01:31:37;;;;;;;0.00;0.00;;;;;;;;;;4994419;28;20026;-83
2021/10/24 01:34:04;;;;;;;0.00;0.00;;;;;;;;;;4994144;28;20390;-83
2021/10/24 01:36:29;;;;;;;0.00;0.00;;;;;;;;;;4994114;28;20033;-83
2021/10/24 01:38:54;;;;;;;0.00;0.00;;;;;;;;;;4993793;28;20022;-83
2021/10/24 01:41:20;;;;;;;0.00;0.00;;;;;;;;;;4994147;28;20101;-83
2021/10/24 01:43:47;;;;;;;2.38;0.95;;;;;;;;;;4994349;28;20033;-82
2021/10/24 01:46:14;;;;;;;0.08;0.08;;;;;;;;;;4994210;28;20026;-83
2021/10/24 01:48:40;;;;;;;0.00;0.00;;;;;;;;;;4994039;28;20521;-83
2021/10/24 01:51:05;;;;;;;0.32;0.30;;;;;;;;;;4994024;28;20022;-82
2021/10/24 01:53:32;;;;;;;0.00;0.00;;;;;;;;;;4994059;28;20034;-82
2021/10/24 01:55:58;;;;;;;0.32;0.32;;;;;;;;;;4993546;28;20030;-83
2021/10/24 01:58:24;;;;;;;0.00;0.00;;;;;;;;;;4993800;28;20041;-83
2021/10/24 02:00:49;;;;;;;0.00;0.00;;;;;;;;;;4993955;28;20023;-83
2021/10/24 02:03:15;;;;;;;0.10;0.10;;;;;;;;;;4993895;28;20062;-83
2021/10/24 02:05:41;;;;;;;0.00;0.00;;;;;;;;;;4994015;28;20023;-82
2021/10/24 02:08:06;;;;;;;0.00;0.00;;;;;;;;;;4993551;28;20477;-82
2021/10/24 02:10:32;;;;;;;0.47;0.22;;;;;;;;;;4993380;28;20058;-83
2021/10/24 02:12:57;;;;;;;0.00;0.00;;;;;;;;;;4993836;28;20027;-83
2021/10/24 02:15:23;;;;;;;0.00;0.00;;;;;;;;;;4993803;28;20469;-82
2021/10/24 02:17:48;;;;;;;1.67;0.73;;;;;;;;;;4977027;28;20050;-83
2021/10/24 02:20:14;;;;;;;1.85;1.02;;;;;;;;;;4978155;28;20368;-83
2021/10/24 02:22:39;;;;;;;0.00;0.00;;;;;;;;;;4978094;28;20019;-83
2021/10/24 02:25:05;;;;;;;0.08;0.08;;;;;;;;;;4977699;28;20045;-83
2021/10/24 02:27:30;;;;;;;0.10;0.10;;;;;;;;;;4978150;28;20026;-83
2021/10/24 02:29:56;;;;;;;2.10;1.55;;;;;;;;;;4977913;28;20383;-83
2021/10/24 02:32:21;;;;;;;0.10;0.10;;;;;;;;;;4977936;28;20039;-83
2021/10/24 02:34:47;;;;;;;0.10;0.10;;;;;;;;;;4977631;28;20026;-83
2021/10/24 02:37:13;;;;;;;0.00;0.00;;;;;;;;;;4977814;28;20026;-83
2021/10/24 02:39:38;;;;;;;0.00;0.00;;;;;;;;;;4977915;28;20435;-83
2021/10/24 02:42:05;;;;;;;5.00;0.77;;;;;;;;;;4977783;28;20023;-83
2021/10/24 02:44:31;;;;;;;0.00;0.00;;;;;;;;;;4977794;28;20026;-83
2021/10/24 02:46:56;;;;;;;0.20;0.20;;;;;;;;;;4960218;28;20035;-83
2021/10/24 02:49:21;;;;;;;0.15;0.15;;;;;;;;;;4985505;28;20022;-83
2021/10/24 02:51:48;;;;;;;1.30;1.10;;;;;;;;;;4997055;28;20451;-83
2021/10/24 02:54:14;;;;;;;0.15;0.15;;;;;;;;;;4997095;28;20034;-83
2021/10/24 02:56:39;;;;;;;0.00;0.00;;;;;;;;;;4996983;28;20351;-83
2021/10/24 02:59:05;;;;;;;0.10;0.10;;;;;;;;;;4996985;28;20022;-83
2021/10/24 03:01:30;;;;;;;0.10;0.10;;;;;;;;;;4996910;28;20493;-83
2021/10/24 03:03:55;;;;;;;0.00;0.00;;;;;;;;;;4997206;28;20101;-82
2021/10/24 03:06:21;;;;;;;0.10;0.10;;;;;;;;;;4995780;28;20112;-83
2021/10/24 03:08:46;;;;;;;0.00;0.00;;;;;;;;;;4996660;28;20034;-83
2021/10/24 03:11:11;;;;;;;0.00;0.00;;;;;;;;;;4996763;28;20445;-83
2021/10/24 03:13:37;;;;;;;0.45;0.45;;;;;;;;;;4996721;28;20023;-83
2021/10/24 03:16:02;;;;;;;0.00;0.00;;;;;;;;;;4996494;28;20044;-83
2021/10/24 03:18:27;;;;;;;0.30;0.30;;;;;;;;;;4996439;28;20028;-83
2021/10/24 03:20:53;;;;;;;0.10;0.10;;;;;;;;;;4996468;28;20451;-83
2021/10/24 03:23:18;;;;;;;0.00;0.00;;;;;;;;;;4996516;28;20088;-82
2021/10/24 03:25:44;;;;;;;0.00;0.00;;;;;;;;;;4996442;28;20033;-83
2021/10/24 03:28:09;;;;;;;0.00;0.00;;;;;;;;;;4996199;28;20050;-83
2021/10/24 03:30:34;;;;;;;0.00;0.00;;;;;;;;;;4995778;28;20041;-83
2021/10/24 03:32:59;;;;;;;0.00;0.00;;;;;;;;;;4996679;28;20503;-82
2021/10/24 03:35:25;;;;;;;0.00;0.00;;;;;;;;;;4996638;28;20047;-82
2021/10/24 03:37:50;;;;;;;0.10;0.10;;;;;;;;;;4996164;28;20092;-83
2021/10/24 03:40:16;;;;;;;0.00;0.00;;;;;;;;;;4996210;28;20022;-83
2021/10/24 03:42:41;;;;;;;0.00;0.00;;;;;;;;;;4995903;28;20033;-82
2021/10/24 03:45:07;;;;;;;0.45;0.45;;;;;;;;;;4995984;28;20037;-82
2021/10/24 03:47:32;;;;;;;0.10;0.10;;;;;;;;;;4996126;28;20443;-82
2021/10/24 03:49:57;;;;;;;0.00;0.00;;;;;;;;;;4983434;28;20023;-83
2021/10/24 03:52:23;;;;;;;0.05;0.05;;;;;;;;;;4976625;28;20034;-82
2021/10/24 03:54:48;;;;;;;0.77;0.75;;;;;;;;;;4976429;28;20030;-82
2021/10/24 03:57:13;;;;;;;0.00;0.00;;;;;;;;;;4976272;28;20373;-83
2021/10/24 03:59:39;;;;;;;0.00;0.00;;;;;;;;;;4976352;28;20038;-83
2021/10/24 04:02:04;;;;;;;0.40;0.35;;;;;;;;;;4976610;28;20038;-83
2021/10/24 04:04:30;;;;;;;0.20;0.20;;;;;;;;;;4976272;28;20030;-83
2021/10/24 04:06:55;;;;;;;0.00;0.00;;;;;;;;;;4976512;28;20041;-83
2021/10/24 04:09:20;;;;;;;0.20;0.20;;;;;;;;;;4976268;28;20468;-82
2021/10/24 04:11:45;;;;;;;2.15;1.40;;;;;;;;;;4976284;28;20019;-83
2021/10/24 04:14:11;;;;;;;4.20;0.75;;;;;;;;;;4975938;28;20031;-83
2021/10/24 04:16:36;;;;;;;0.13;0.13;;;;;;;;;;4983255;28;20455;-83
2021/10/24 04:19:01;;;;;;;0.00;0.00;;;;;;;;;;4995483;28;20044;-83
2021/10/24 04:21:27;;;;;;;0.20;0.20;;;;;;;;;;4995084;28;20046;-83
2021/10/24 04:23:53;;;;;;;0.20;0.20;;;;;;;;;;4995342;28;20018;-83
2021/10/24 04:26:18;;;;;;;0.52;0.52;;;;;;;;;;4995284;28;20030;-82
2021/10/24 04:28:43;;;;;;;0.05;0.05;;;;;;;;;;4995304;28;20030;-83
2021/10/24 04:31:09;;;;;;;0.52;0.52;;;;;;;;;;4977485;28;20061;-83
2021/10/24 04:33:34;;;;;;;0.75;0.75;;;;;;;;;;4995433;28;20514;-83
2021/10/24 04:35:59;;;;;;;0.45;0.45;;;;;;;;;;4994733;28;20045;-83
2021/10/24 04:38:25;;;;;;;0.00;0.00;;;;;;;;;;4995068;28;20055;-83
2021/10/24 04:40:50;;;;;;;0.45;0.45;;;;;;;;;;4995060;28;20386;-83
2021/10/24 04:43:16;;;;;;;1.10;1.02;;;;;;;;;;4994074;28;20426;-83
2021/10/24 04:45:41;;;;;;;0.00;0.00;;;;;;;;;;4995018;28;20362;-83
2021/10/24 04:48:07;;;;;;;0.05;0.05;;;;;;;;;;4994995;28;20482;-83
2021/10/24 04:50:32;;;;;;;0.10;0.10;;;;;;;;;;4977307;28;20035;-83
2021/10/24 04:52:58;;;;;;;0.25;0.25;;;;;;;;;;4974989;28;20027;-83
2021/10/24 04:55:23;;;;;;;0.10;0.10;;;;;;;;;;4975094;28;20030;-83
2021/10/24 04:57:48;;;;;;;1.98;0.43;;;;;;;;;;4975264;28;20043;-83
2021/10/24 05:00:14;;;;;;;0.10;0.10;;;;;;;;;;4975260;28;20459;-83
2021/10/24 05:02:39;;;;;;;0.55;0.45;;;;;;;;;;4957917;28;20033;-83
2021/10/24 05:05:05;;;;;;;0.10;0.10;;;;;;;;;;4975236;28;20030;-83
2021/10/24 05:07:31;;;;;;;0.00;0.00;;;;;;;;;;4975116;28;20015;-83
2021/10/24 05:09:56;;;;;;;0.05;0.05;;;;;;;;;;4975263;28;20053;-83
2021/10/24 05:12:22;;;;;;;0.40;0.40;;;;;;;;;;4975053;28;20502;-83
2021/10/24 05:14:47;;;;;;;1.10;1.00;;;;;;;;;;4974947;28;20029;-82
2021/10/24 05:17:12;;;;;;;0.00;0.00;;;;;;;;;;4986503;28;20026;-83
2021/10/24 05:19:37;;;;;;;0.00;0.00;;;;;;;;;;4994463;28;20089;-83
2021/10/24 05:22:03;;;;;;;1.20;1.10;;;;;;;;;;4994328;28;20620;-82
2021/10/24 05:24:28;;;;;;;0.55;0.55;;;;;;;;;;4993991;28;20097;-83
2021/10/24 05:26:55;;;;;;;1.45;1.20;;;;;;;;;;4993968;28;20031;-82
2021/10/24 05:29:20;;;;;;;0.08;0.08;;;;;;;;;;4994259;28;20027;-82
2021/10/24 05:31:45;;;;;;;0.00;0.00;;;;;;;;;;4994258;28;20040;-83
2021/10/24 05:34:10;;;;;;;0.00;0.00;;;;;;;;;;4994194;28;20038;-83
2021/10/24 05:36:36;;;;;;;0.08;0.08;;;;;;;;;;4994173;28;20113;-83
2021/10/24 05:39:01;;;;;;;1.17;0.98;;;;;;;;;;4994227;28;20026;-83
2021/10/24 05:41:27;;;;;;;0.10;0.10;;;;;;;;;;4976671;28;20038;-83
2021/10/24 05:43:53;;;;;;;1.17;1.08;;;;;;;;;;4994098;28;20026;-83
2021/10/24 05:46:18;;;;;;;0.05;0.05;;;;;;;;;;4994043;28;20019;-83
2021/10/24 05:48:44;;;;;;;0.00;0.00;;;;;;;;;;4990769;28;20056;-83
2021/10/24 05:51:10;;;;;;;0.00;0.00;;;;;;;;;;4974653;28;20027;-83
2021/10/24 05:53:36;;;;;;;0.00;0.00;;;;;;;;;;4976061;28;20022;-83
2021/10/24 05:56:02;;;;;;;0.00;0.00;;;;;;;;;;4978632;28;20035;-83
2021/10/24 05:58:27;;;;;;;0.00;0.00;;;;;;;;;;4978594;28;20073;-83
2021/10/24 06:00:53;;;;;;;0.00;0.00;;;;;;;;;;4978550;28;20340;-83
2021/10/24 06:03:18;;;;;;;0.00;0.00;;;;;;;;;;4978513;28;20169;-83
2021/10/24 06:05:44;;;;;;;0.00;0.00;;;;;;;;;;4978566;28;20440;-83
2021/10/24 06:08:17;;;;;;;0.00;0.00;;;;;;;;;;4978568;28;20034;-83
2021/10/24 06:10:43;;;;;;;0.20;0.17;;;;;;;;;;4978672;28;20128;-83
2021/10/24 06:13:08;;;;;;;0.00;0.00;;;;;;;;;;4978577;28;20396;-83
2021/10/24 06:15:37;;;;;;;0.00;0.00;;;;;;;;;;4978621;28;20105;-83
2021/10/24 06:18:02;;;;;;;0.10;0.10;;;;;;;;;;4996323;28;20475;-82
2021/10/24 06:20:27;;;;;;;0.22;0.22;;;;;;;;;;4997663;28;20101;-82
2021/10/24 06:22:53;;;;;;;0.00;0.00;;;;;;;;;;4997580;28;20026;-83
2021/10/24 06:25:18;;;;;;;0.10;0.10;;;;;;;;;;4997505;28;20471;-82
2021/10/24 06:27:44;;;;;;;0.50;0.50;;;;;;;;;;4997892;28;20049;-82
2021/10/24 06:30:11;;;;;;;0.00;0.00;;;;;;;;;;4997624;28;20386;-82
2021/10/24 06:32:36;;;;;;;0.68;0.68;;;;;;;;;;4997280;28;20030;-82
2021/10/24 06:35:03;;;;;;;0.10;0.10;;;;;;;;;;4997324;28;20470;-83
2021/10/24 06:37:29;;;;;;;0.13;0.13;;;;;;;;;;4997272;28;20037;-83
2021/10/24 06:39:54;;;;;;;0.20;0.20;;;;;;;;;;4979746;28;20034;-81
2021/10/24 06:42:20;;;;;;;0.10;0.10;;;;;;;;;;4996924;28;20026;-81
2021/10/24 06:44:45;;;;;;;0.10;0.10;;;;;;;;;;4997184;28;20030;-82
2021/10/24 06:47:10;;;;;;;0.00;0.00;;;;;;;;;;4997474;28;20034;-81
2021/10/24 06:49:36;;;;;;;0.00;0.00;;;;;;;;;;4997088;28;20109;-82
2021/10/24 06:52:05;;;;;;;4.13;0.90;;;;;;;;;;4997116;28;20078;-82
2021/10/24 06:54:31;;;;;;;0.10;0.10;;;;;;;;;;4979390;28;20034;-82
2021/10/24 06:56:56;;;;;;;0.57;0.30;;;;;;;;;;4996727;28;20104;-82
2021/10/24 06:59:22;;;;;;;0.00;0.00;;;;;;;;;;4996950;28;20450;-82
2021/10/24 07:01:47;;;;;;;0.15;0.15;;;;;;;;;;4979471;28;20034;-82
2021/10/24 07:04:14;;;;;;;0.10;0.10;;;;;;;;;;4996636;28;20088;-82
2021/10/24 07:06:39;;;;;;;0.32;0.32;;;;;;;;;;4996205;28;20446;-82
2021/10/24 07:09:04;;;;;;;0.00;0.00;;;;;;;;;;4996377;28;20089;-82
2021/10/24 07:11:30;;;;;;;0.00;0.00;;;;;;;;;;4996741;28;20147;-82
2021/10/24 07:13:55;;;;;;;0.00;0.00;;;;;;;;;;4996762;28;20073;-82
2021/10/24 07:16:20;;;;;;;0.10;0.10;;;;;;;;;;4991568;28;20486;-82
2021/10/24 07:18:45;;;;;;;0.10;0.10;;;;;;;;;;4976880;28;20097;-82
2021/10/24 07:21:11;;;;;;;0.35;0.30;;;;;;;;;;4976323;28;20015;-82
2021/10/24 07:23:36;;;;;;;1.67;0.30;;;;;;;;;;4979345;28;20042;-82
2021/10/24 07:26:02;;;;;;;0.20;0.20;;;;;;;;;;4985181;28;20066;-82
2021/10/24 07:28:27;;;;;;;0.10;0.10;;;;;;;;;;4991262;28;20520;-82
2021/10/24 07:30:53;;;;;;;0.22;0.22;;;;;;;;;;4981048;28;20022;-82
2021/10/24 07:33:18;;;;;;;0.00;0.00;;;;;;;;;;4990542;28;20071;-82
2021/10/24 07:35:43;;;;;;;0.10;0.10;;;;;;;;;;4996367;28;20049;-82
2021/10/24 07:38:13;;;;;;;0.00;0.00;;;;;;;;;;4995705;28;20053;-82
2021/10/24 07:40:38;;;;;;;0.65;0.65;;;;;;;;;;4996089;28;20022;-82
2021/10/24 07:43:04;;;;;;;0.00;0.00;;;;;;;;;;4996186;28;20386;-82
2021/10/24 07:45:29;;;;;;;0.65;0.55;;;;;;;;;;4995667;28;20092;-82
2021/10/24 07:47:56;;;;;;;0.10;0.10;;;;;;;;;;4995684;28;20030;-83
2021/10/24 07:50:23;;;;;;;3.75;0.55;;;;;;;;;;4979623;28;20015;-82
2021/10/24 07:52:48;;;;;;;0.00;0.00;;;;;;;;;;4976107;28;20031;-82
2021/10/24 07:55:13;;;;;;;0.08;0.08;;;;;;;;;;4976162;28;20365;-83
2021/10/24 07:57:39;;;;;;;0.10;0.10;;;;;;;;;;4978043;28;20051;-83
2021/10/24 08:00:05;;;;;;;0.22;0.22;;;;;;;;;;4979212;28;20043;-83
2021/10/24 08:02:32;;;;;;;0.10;0.10;;;;;;;;;;4988851;28;20114;-83
2021/10/24 08:04:58;;;;;;;0.35;0.32;;;;;;;;;;4986027;28;20462;-83
2021/10/24 08:07:23;;;;;;;0.10;0.10;;;;;;;;;;4995565;28;20041;-83
2021/10/24 08:09:48;;;;;;;0.00;0.00;;;;;;;;;;4977978;28;20402;-83
2021/10/24 08:12:14;;;;;;;2.50;0.35;;;;;;;;;;4995668;28;20451;-83
2021/10/24 08:14:39;;;;;;;0.30;0.30;;;;;;;;;;4995591;28;20133;-83
2021/10/24 08:17:05;;;;;;;0.10;0.10;;;;;;;;;;4984374;28;20039;-83
2021/10/24 08:19:31;;;;;;;0.47;0.47;;;;;;;;;;4976020;28;20088;-83
2021/10/24 08:21:57;;;;;;;0.10;0.10;;;;;;;;;;4975625;28;20480;-82
2021/10/24 08:24:23;;;;;;;0.03;0.03;;;;;;;;;;4975767;28;20074;-82
2021/10/24 08:26:49;;;;;;;0.10;0.10;;;;;;;;;;4975667;28;20030;-82
2021/10/24 08:29:14;;;;;;;0.10;0.10;;;;;;;;;;4975800;28;20037;-82
2021/10/24 08:31:44;;;;;;;0.10;0.10;;;;;;;;;;4975882;28;20031;-83
2021/10/24 08:34:09;;;;;;;0.03;0.03;;;;;;;;;;4975506;28;20455;-83
2021/10/24 08:36:34;;;;;;;5.93;2.40;;;;;;;;;;4975651;28;20042;-82
2021/10/24 08:39:00;;;;;;;0.20;0.20;;;;;;;;;;4975575;28;20022;-82
2021/10/24 08:41:29;;;;;;;0.00;0.00;;;;;;;;;;4975686;28;20027;-83
2021/10/24 08:44:03;;;;;;;2.60;1.35;;;;;;;;;;4975503;28;20037;-82
2021/10/24 08:46:29;;;;;;;0.25;0.25;;;;;;;;;;4975352;28;20030;-82
2021/10/24 08:48:56;;;;;;;0.73;0.73;;;;;;;;;;4979506;28;20041;-82
2021/10/24 08:51:22;;;;;;;0.10;0.10;;;;;;;;;;4994804;28;20023;-82
2021/10/24 08:53:48;;;;;;;0.10;0.10;;;;;;;;;;4994761;28;20032;-82
2021/10/24 08:56:23;;;;;;;4.45;0.57;;;;;;;;;;4994698;28;20038;-82
2021/10/24 08:58:49;;;;;;;0.13;0.13;;;;;;;;;;4994490;28;20014;-82
2021/10/24 09:01:15;;;;;;;5.03;0.73;;;;;;;;;;4994813;28;20146;-81
2021/10/24 09:04:00;;;;;;;0.00;0.00;;;;;;;;;;4994685;28;20019;-81
2021/10/24 09:06:41;;;;;;;0.10;0.10;;;;;;;;;;4994347;28;20045;-81
2021/10/24 09:09:14;;;;;;;0.30;0.22;;;;;;;;;;4994445;28;20137;-81
2021/10/24 09:11:40;;;;;;;0.30;0.30;;;;;;;;;;4994551;28;20042;-81
2021/10/24 09:14:05;;;;;;;0.75;0.35;;;;;;;;;;4994073;28;20389;-81
2021/10/24 09:16:50;;;;;;;0.40;0.40;;;;;;;;;;4988148;28;20031;-81
2021/10/24 09:19:15;;;;;;;0.80;0.75;;;;;;;;;;4974894;28;20026;-81
2021/10/24 09:21:41;;;;;;;0.80;0.68;;;;;;;;;;4974899;28;20027;-82
2021/10/24 09:24:06;;;;;;;0.20;0.15;;;;;;;;;;4974705;28;20038;-81
2021/10/24 09:26:31;;;;;;;0.43;0.43;;;;;;;;;;4974870;28;20045;-81
2021/10/24 09:29:00;;;;;;;0.00;0.00;;;;;;;;;;4974409;28;20042;-82
2021/10/24 09:31:27;;;;;;;0.17;0.05;;;;;;;;;;4974619;28;20030;-81
2021/10/24 09:33:52;;;;;;;0.10;0.10;;;;;;;;;;4974660;28;20042;-81
2021/10/24 09:36:24;;;;;;;0.45;0.32;;;;;;;;;;4974723;28;20038;-82
2021/10/24 09:38:50;;;;;;;1.98;1.42;;;;;;;;;;4974264;28;20522;-81
2021/10/24 09:41:15;;;;;;;1.08;1.02;;;;;;;;;;4974771;28;20035;-81
2021/10/24 09:43:43;;;;;;;0.10;0.10;;;;;;;;;;4974324;28;20031;-81
2021/10/24 09:46:08;;;;;;;0.10;0.10;;;;;;;;;;4957275;28;20474;-81
2021/10/24 09:48:34;;;;;;;0.10;0.10;;;;;;;;;;4967200;28;20054;-82
2021/10/24 09:51:01;;;;;;;0.00;0.00;;;;;;;;;;4989071;28;20041;-81
2021/10/24 09:53:30;;;;;;;0.22;0.22;;;;;;;;;;4993756;28;20034;-82
2021/10/24 09:55:56;;;;;;;0.00;0.00;;;;;;;;;;4993943;28;20081;-81
2021/10/24 09:58:22;;;;;;;1.88;1.75;;;;;;;;;;4993787;28;20078;-82
2021/10/24 10:00:47;;;;;;;0.25;0.25;;;;;;;;;;4993689;28;20447;-82
2021/10/24 10:03:17;;;;;;;1.17;1.08;;;;;;;;;;4994284;28;20032;-82
2021/10/24 10:05:42;;;;;;;0.25;0.25;;;;;;;;;;4993936;28;20533;-81
2021/10/24 10:08:09;;;;;;;0.00;0.00;;;;;;;;;;4994129;28;20018;-82
2021/10/24 10:10:47;;;;;;;0.35;0.35;;;;;;;;;;4993776;28;20047;-82
2021/10/24 10:13:13;;;;;;;4.22;1.13;;;;;;;;;;4991454;28;20097;-82
2021/10/24 10:15:40;;;;;;;0.00;0.00;;;;;;;;;;4974664;28;20066;-82
2021/10/24 10:18:06;;;;;;;0.32;0.32;;;;;;;;;;4973313;28;20102;-82
2021/10/24 10:20:35;;;;;;;0.10;0.10;;;;;;;;;;4972892;28;20531;-82
2021/10/24 10:23:07;;;;;;;0.00;0.00;;;;;;;;;;4972672;28;20074;-82
2021/10/24 10:25:33;;;;;;;0.88;0.88;;;;;;;;;;4972358;28;20035;-82
2021/10/24 10:27:58;;;;;;;0.00;0.00;;;;;;;;;;4971625;28;20443;-82
2021/10/24 10:30:38;;;;;;;1.30;0.98;;;;;;;;;;4954987;28;20026;-82
2021/10/24 10:33:22;;;;;;;0.00;0.00;;;;;;;;;;4972783;28;20039;-82
2021/10/24 10:35:51;;;;;;;1.05;1.00;;;;;;;;;;4971720;28;20026;-82
2021/10/24 10:38:30;;;;;;;1.38;1.05;;;;;;;;;;4972892;28;20042;-82
2021/10/24 10:40:56;;;;;;;0.50;0.50;;;;;;;;;;4975932;28;20110;-83
2021/10/24 10:43:21;;;;;;;0.60;0.45;;;;;;;;;;4976500;28;20117;-82
2021/10/24 10:45:48;;;;;;;0.30;0.30;;;;;;;;;;4976154;28;20030;-82
2021/10/24 10:48:33;;;;;;;2.63;1.40;;;;;;;;;;4976447;28;20022;-82
2021/10/24 10:51:16;;;;;;;0.73;0.73;;;;;;;;;;4976338;28;20037;-82
2021/10/24 10:53:44;;;;;;;0.00;0.00;;;;;;;;;;4976294;28;20081;-82
2021/10/24 10:56:12;;;;;;;0.43;0.35;;;;;;;;;;4976127;28;20064;-82
2021/10/24 10:58:45;;;;;;;0.65;0.65;;;;;;;;;;4976281;28;20070;-82
2021/10/24 11:01:18;;;;;;;1.02;0.90;;;;;;;;;;4975961;28;20028;-82
2021/10/24 11:04:09;;;;;;;0.00;0.00;;;;;;;;;;4976398;28;20042;-82
2021/10/24 11:06:38;;;;;;;0.10;0.10;;;;;;;;;;4971424;28;20038;-82
2021/10/24 11:09:03;;;;;;;0.00;0.00;;;;;;;;;;4975331;28;20055;-82
2021/10/24 11:11:34;;;;;;;0.03;0.03;;;;;;;;;;4976153;28;20033;-81
2021/10/24 11:13:59;;;;;;;0.20;0.20;;;;;;;;;;4976231;28;20035;-82
2021/10/24 11:16:34;;;;;;;0.30;0.30;;;;;;;;;;4975233;28;20494;-82
2021/10/24 11:18:59;;;;;;;0.00;0.00;;;;;;;;;;4975822;28;20030;-82
2021/10/24 11:21:25;;;;;;;0.00;0.00;;;;;;;;;;4976143;28;20117;-82
2021/10/24 11:23:57;;;;;;;0.38;0.38;;;;;;;;;;4975874;28;20098;-82
2021/10/24 11:26:23;;;;;;;0.00;0.00;;;;;;;;;;4975279;28;20086;-83
2021/10/24 11:28:48;;;;;;;0.20;0.20;;;;;;;;;;4975452;28;20031;-83
2021/10/24 11:31:18;;;;;;;0.10;0.10;;;;;;;;;;4975634;28;20030;-82
2021/10/24 11:33:45;;;;;;;0.15;0.13;;;;;;;;;;4975634;28;20026;-82
2021/10/24 11:36:10;;;;;;;0.20;0.20;;;;;;;;;;4975569;28;20047;-82
2021/10/24 11:38:36;;;;;;;0.00;0.00;;;;;;;;;;4975230;28;20034;-82
2021/10/24 11:41:02;;;;;;;0.00;0.00;;;;;;;;;;4975399;28;20038;-82
2021/10/24 11:43:29;;;;;;;3.10;1.05;;;;;;;;;;4975739;28;20035;-82
2021/10/24 11:45:56;;;;;;;0.00;0.00;;;;;;;;;;4975695;28;20031;-82
2021/10/24 11:48:32;;;;;;;0.30;0.30;;;;;;;;;;4974869;28;20432;-82
2021/10/24 11:51:07;;;;;;;0.25;0.25;;;;;;;;;;4974869;28;20042;-82
2021/10/24 11:53:36;;;;;;;0.93;0.85;;;;;;;;;;4975303;28;20054;-82
2021/10/24 11:56:05;;;;;;;0.70;0.70;;;;;;;;;;4975620;28;20038;-82
2021/10/24 12:01:09;;;;;;;0.25;0.25;;;;;;;;;;4975171;28;20034;-82
2021/10/24 12:03:35;;;;;;;0.10;0.10;;;;;;;;;;4975390;28;20121;-82
2021/10/24 12:06:01;;;;;;;0.68;0.68;;;;;;;;;;4973716;28;20617;-82
2021/10/24 12:08:46;;;;;;;1.48;1.27;;;;;;;;;;4974328;28;20046;-81
2021/10/24 12:11:13;;;;;;;0.38;0.30;;;;;;;;;;4974716;28;20121;-81
2021/10/24 12:13:40;;;;;;;0.10;0.10;;;;;;;;;;4975323;28;20027;-82
2021/10/24 12:16:21;;;;;;;0.65;0.57;;;;;;;;;;4975083;28;20037;-82
2021/10/24 12:18:47;;;;;;;0.35;0.35;;;;;;;;;;4974661;28;20081;-82
2021/10/24 12:21:12;;;;;;;0.35;0.32;;;;;;;;;;4974219;28;20062;-82
2021/10/24 12:23:38;;;;;;;0.55;0.55;;;;;;;;;;4974018;28;20014;-82
2021/10/24 12:26:05;;;;;;;0.00;0.00;;;;;;;;;;4994071;28;20038;-82
2021/10/24 12:28:33;;;;;;;0.08;0.08;;;;;;;;;;4993600;28;20036;-82
2021/10/24 12:31:07;;;;;;;0.40;0.40;;;;;;;;;;4994379;28;20014;-82
2021/10/24 12:33:32;;;;;;;3.10;1.00;;;;;;;;;;4994187;28;20041;-82
2021/10/24 12:35:59;;;;;;;0.05;0.05;;;;;;;;;;4993411;28;20402;-82
2021/10/24 12:38:45;;;;;;;0.57;0.57;;;;;;;;;;4993800;28;20037;-82
2021/10/24 12:41:10;;;;;;;0.17;0.17;;;;;;;;;;4993538;28;20129;-82
2021/10/24 12:43:46;;;;;;;0.30;0.30;;;;;;;;;;4993579;28;20062;-82
2021/10/24 12:46:11;;;;;;;0.35;0.35;;;;;;;;;;4993721;28;20451;-82
2021/10/24 12:48:39;;;;;;;0.13;0.13;;;;;;;;;;4992033;28;20113;-82
2021/10/24 12:51:19;;;;;;;0.00;0.00;;;;;;;;;;4974300;28;20438;-82
2021/10/24 12:53:45;;;;;;;16.05;0.95;;;;;;;;;;4975044;28;20151;-81
2021/10/24 12:56:10;;;;;;;0.25;0.20;;;;;;;;;;4974399;28;20060;-81
2021/10/24 12:58:35;;;;;;;3.20;2.00;;;;;;;;;;4974456;28;20031;-82
2021/10/24 13:01:00;;;;;;;1.70;0.73;;;;;;;;;;4974503;28;20143;-83
2021/10/24 13:03:26;;;;;;;0.65;0.65;;;;;;;;;;4973805;28;20031;-82
2021/10/24 13:05:51;;;;;;;1.65;1.45;;;;;;;;;;4974917;28;20033;-83
2021/10/24 13:08:17;;;;;;;0.20;0.20;;;;;;;;;;4974765;28;20031;-83
2021/10/24 13:10:42;;;;;;;6.95;1.25;;;;;;;;;;4975061;28;20142;-83
2021/10/24 13:13:08;;;;;;;0.00;0.00;;;;;;;;;;4974796;28;20394;-83
2021/10/24 13:15:33;;;;;;;0.82;0.73;;;;;;;;;;4957375;28;20046;-83
2021/10/24 13:17:59;;;;;;;0.30;0.25;;;;;;;;;;4974547;28;20070;-82
2021/10/24 13:20:25;;;;;;;0.10;0.10;;;;;;;;;;4974386;28;20023;-83
2021/10/24 13:22:54;;;;;;;0.00;0.00;;;;;;;;;;4957113;28;20035;-82
2021/10/24 13:25:20;;;;;;;0.80;0.47;;;;;;;;;;4974878;28;20035;-83
2021/10/24 13:27:46;;;;;;;0.38;0.38;;;;;;;;;;4974386;28;20023;-80
2021/10/24 13:30:11;;;;;;;0.10;0.10;;;;;;;;;;4974490;28;20027;-82
2021/10/24 13:32:36;;;;;;;0.93;0.93;;;;;;;;;;4974247;28;20069;-82
2021/10/24 13:35:02;;;;;;;0.13;0.13;;;;;;;;;;4974486;28;20025;-82
2021/10/24 13:37:27;;;;;;;0.17;0.17;;;;;;;;;;4974474;28;20035;-82
2021/10/24 13:39:52;;;;;;;0.52;0.45;;;;;;;;;;4974433;28;20027;-82
2021/10/24 13:42:19;;;;;;;3.65;0.88;;;;;;;;;;4974484;28;20463;-82
2021/10/24 13:44:44;;;;;;;0.43;0.43;;;;;;;;;;4974262;28;20089;-82
2021/10/24 13:47:09;;;;;;;0.55;0.55;;;;;;;;;;4974050;28;20118;-82
2021/10/24 13:49:35;;;;;;;0.60;0.60;;;;;;;;;;4974136;28;20027;-83
2021/10/24 13:52:01;;;;;;;0.65;0.40;;;;;;;;;;4974045;28;20027;-83
2021/10/24 13:54:26;;;;;;;0.68;0.68;;;;;;;;;;4971578;28;20464;-85
2021/10/24 13:56:51;;;;;;;0.20;0.20;;;;;;;;;;4972959;28;20038;-83
2021/10/24 13:59:16;;;;;;;0.30;0.30;;;;;;;;;;4973161;28;20372;-83
2021/10/24 14:01:42;;;;;;;4.65;1.63;;;;;;;;;;4973845;28;20110;-82
2021/10/24 14:04:09;;;;;;;0.00;0.00;;;;;;;;;;4973720;28;20027;-83
2021/10/24 14:06:35;;;;;;;0.30;0.30;;;;;;;;;;4973473;28;20090;-83
2021/10/24 14:09:00;;;;;;;0.10;0.10;;;;;;;;;;4973176;28;20055;-82
2021/10/24 14:11:26;;;;;;;3.65;0.57;;;;;;;;;;4973785;28;20102;-82
2021/10/24 14:13:52;;;;;;;0.20;0.20;;;;;;;;;;4973572;28;20059;-83
2021/10/24 14:16:17;;;;;;;0.20;0.20;;;;;;;;;;4977488;28;20538;-83
2021/10/24 14:18:42;;;;;;;0.13;0.13;;;;;;;;;;4977200;28;20073;-82
2021/10/24 14:21:08;;;;;;;0.10;0.10;;;;;;;;;;4977604;28;20077;-83
2021/10/24 14:23:33;;;;;;;0.00;0.00;;;;;;;;;;4977418;28;20031;-82
2021/10/24 14:25:59;;;;;;;0.40;0.40;;;;;;;;;;4977396;28;20019;-83
2021/10/24 14:28:25;;;;;;;1.13;1.02;;;;;;;;;;4977168;28;20027;-84
2021/10/24 14:30:50;;;;;;;0.00;0.00;;;;;;;;;;4977405;28;20138;-83
2021/10/24 14:33:15;;;;;;;1.05;0.98;;;;;;;;;;4976271;28;20451;-83
2021/10/24 14:35:40;;;;;;;0.85;0.85;;;;;;;;;;4993295;28;20426;-83
2021/10/24 14:38:06;;;;;;;0.25;0.20;;;;;;;;;;4996664;28;20043;-83
2021/10/24 14:40:31;;;;;;;0.10;0.10;;;;;;;;;;4996770;28;20091;-83
2021/10/24 14:42:56;;;;;;;0.10;0.10;;;;;;;;;;4997313;28;20037;-83